Item Display Status Humidity-temperature Sensor

Elevation Above Sea Level: 3 m

 

Deployed Sensor

  • Serial Number: 20257088
  • NDBC Property Number: 42276
  • Start Date: 12/6/2018 (13:24:51 Z)
  • End Date: Currently Active
Relative Humidity [%]     6 entries per hour
Showing data from 11/12/2019 (07:00:00 Z) to 11/11/2019 (00:00:01 Z)
Previous Next [ Day | 3-Days | 7-Days ]
First Last
Prev [ Day | 3-Days | 7-Days ] Next
First Last

Start Time:     :
End Time:     :     
Time (in GMT) :00 :50 :40 :30 :20 :10
Previous Next [ Day | 3-Days | 7-Days ]
First Last
Prev [ Day | 3-Days | 7-Days ] Next
First Last


123 => good data
MM => data is determined as missing
-- => data not received/configured
Back to Top Back to Top
11/12/2019 07:00 to 6:10 97.57 96.81 97.13 96.25 97.21 97.49
11/12/2019 06:00 to 5:10 97.71 97.49 96.43 96.81 96.83 97.21
11/12/2019 05:00 to 4:10 98.02 98.72 99.00 99.10 99.12 99.10
11/12/2019 04:00 to 3:10 99.18 99.22 99.02 99.02 98.74 98.76
11/12/2019 03:00 to 2:10 98.80 98.76 98.78 98.84 98.96 99.12
11/12/2019 02:00 to 1:10 99.08 99.14 99.20 99.16 99.16 99.00
11/12/2019 01:00 to 0:10 99.06 99.02 98.92 98.76 98.82 99.04
11/12/2019 00:00 to 23:10 98.82 98.96 98.96 99.00 98.42 97.92
11/11/2019 23:00 to 22:10 98.10 98.32 98.48 97.92 98.04 97.75
11/11/2019 22:00 to 21:10 97.17 97.25 96.25 94.31 92.91 92.44
11/11/2019 21:00 to 20:10 94.51 94.23 92.80 91.70 91.12 90.52
11/11/2019 20:00 to 19:10 88.64 85.23 83.05 82.91 85.67 85.49
11/11/2019 19:00 to 18:10 84.75 86.85 85.39 85.67 84.83 85.11
11/11/2019 18:00 to 17:10 85.73 85.67 84.87 83.13 83.67 82.66
11/11/2019 17:00 to 16:10 82.22 82.44 81.96 81.88 82.70 82.68
11/11/2019 16:00 to 15:10 82.74 82.26 83.73 82.50 82.72 83.27
11/11/2019 15:00 to 14:10 83.29 83.81 84.61 85.17 85.47 86.93
11/11/2019 14:00 to 13:10 88.08 86.57 86.11 86.33 85.53 85.65
11/11/2019 13:00 to 12:10 86.41 87.31 87.45 86.09 85.77 85.91
11/11/2019 12:00 to 11:10 85.11 84.77 87.61 86.65 86.93 86.37
11/11/2019 11:00 to 10:10 87.96 86.15 86.33 87.01 87.19 86.31
11/11/2019 10:00 to 9:10 85.93 86.03 85.85 86.55 87.65 87.90
11/11/2019 09:00 to 8:10 87.77 87.94 88.52 88.82 89.22 89.00
11/11/2019 08:00 to 7:10 90.08 87.77 88.10 87.63 87.71 88.64
11/11/2019 07:00 to 6:10 87.96 88.20 88.10 88.46 88.42 87.92
11/11/2019 06:00 to 5:10 87.57 86.99 87.49 86.09 85.85 86.33
11/11/2019 05:00 to 4:10 86.09 84.43 82.99 84.51 86.43 86.87
11/11/2019 04:00 to 3:10 87.35 87.15 86.71 86.89 87.09 88.70
11/11/2019 03:00 to 2:10 89.08 88.32 87.21 87.83 88.20 88.02
11/11/2019 02:00 to 1:10 87.37 87.07 85.89 85.25 85.13 86.21
11/11/2019 01:00 to 0:10 86.41 85.61 87.31 87.81 87.53 87.07

 

 

 

Air Temperature [°C]     6 entries per hour
Showing data from 11/12/2019 (07:00:00 Z) to 11/11/2019 (00:00:01 Z)
Previous Next [ Day | 3-Days | 7-Days ]
First Last
Prev [ Day | 3-Days | 7-Days ] Next
First Last

Start Time:     :
End Time:     :     
Time (in GMT) :00 :50 :40 :30 :20 :10
Previous Next [ Day | 3-Days | 7-Days ]
First Last
Prev [ Day | 3-Days | 7-Days ] Next
First Last


123 => good data
MM => data is determined as missing
-- => data not received/configured
Back to Top Back to Top
11/12/2019 07:00 to 6:10 24.50 24.52 24.88 24.82 24.55 24.65
11/12/2019 06:00 to 5:10 24.65 24.64 24.76 24.68 24.63 24.51
11/12/2019 05:00 to 4:10 24.51 24.51 24.51 24.46 24.55 24.45
11/12/2019 04:00 to 3:10 24.40 24.54 24.41 24.60 24.52 24.62
11/12/2019 03:00 to 2:10 24.64 24.55 24.40 24.25 24.15 24.11
11/12/2019 02:00 to 1:10 24.06 23.98 23.92 23.83 23.77 23.69
11/12/2019 01:00 to 0:10 23.64 23.71 23.39 23.44 23.49 23.60
11/12/2019 00:00 to 23:10 23.52 23.59 23.64 24.05 23.95 23.69
11/11/2019 23:00 to 22:10 23.55 23.58 23.76 23.47 23.57 24.34
11/11/2019 22:00 to 21:10 24.96 24.67 24.49 24.86 25.48 25.31
11/11/2019 21:00 to 20:10 25.31 25.51 25.57 25.89 26.26 26.49
11/11/2019 20:00 to 19:10 26.52 26.96 26.88 26.82 26.46 26.28
11/11/2019 19:00 to 18:10 26.26 26.38 26.75 26.80 26.79 26.73
11/11/2019 18:00 to 17:10 26.69 26.75 26.79 27.00 27.01 26.97
11/11/2019 17:00 to 16:10 26.93 27.03 26.88 26.91 26.90 26.80
11/11/2019 16:00 to 15:10 26.83 26.86 26.80 26.76 26.63 26.77
11/11/2019 15:00 to 14:10 26.63 26.63 26.53 26.54 26.58 26.31
11/11/2019 14:00 to 13:10 26.09 26.17 26.34 26.43 26.26 26.28
11/11/2019 13:00 to 12:10 26.15 26.17 26.21 26.32 26.32 26.37
11/11/2019 12:00 to 11:10 26.45 26.45 26.41 26.41 26.41 26.36
11/11/2019 11:00 to 10:10 26.58 26.50 26.48 26.57 26.57 26.47
11/11/2019 10:00 to 9:10 26.45 26.42 26.31 26.31 26.39 26.38
11/11/2019 09:00 to 8:10 26.27 26.26 26.24 26.33 26.34 26.26
11/11/2019 08:00 to 7:10 26.42 26.54 26.55 26.58 26.60 26.54
11/11/2019 07:00 to 6:10 26.49 26.49 26.47 26.47 26.48 26.53
11/11/2019 06:00 to 5:10 26.55 26.53 26.69 26.56 26.53 26.56
11/11/2019 05:00 to 4:10 26.48 26.52 26.42 26.29 26.06 26.48
11/11/2019 04:00 to 3:10 26.45 26.40 26.35 26.45 26.32 26.38
11/11/2019 03:00 to 2:10 26.34 26.47 26.38 26.41 26.32 26.47
11/11/2019 02:00 to 1:10 26.45 26.52 26.52 26.50 26.44 26.51
11/11/2019 01:00 to 0:10 26.46 26.37 26.45 26.43 26.56 26.49